MiSS Tiger — HP9404 — position and weather

sailwx.info

Track history (hours):
 
Tides and Currents Weather Stations Pressure Air Temp Water Temp Dewpoint Dewpoint Depression Visibility Wind Speed Wind Dir Waves Ship Positions

MiSS Tiger

Last reported at 2018-Mar-01 03:23 UTC. Time now 2018-Jun-22 13:19 UTC.
Position N 09°33' W 079°59'.
Warning: this ship's position is months out of date.

Length 44 m; draft 5.6 m.

Type: Towing. MMSI: 352229000.

Date/timePositionNaut miles runAvg speedWind from/ knotsBaromVisibWave heightAir tempDewpointWater temp
2018-Mar-01 03:23N 09°33' W 079°59'4 3.8
2018-Mar-01 02:26N 09°29' W 079°60'1 2.1
2018-Mar-01 01:58N 09°28' W 079°60'1 1.4
2018-Mar-01 01:20N 09°28' W 080°01'0 0.8
2018-Mar-01 00:42N 09°27' W 080°01'0 0.2
2018-Feb-28 23:41N 09°27' W 080°01'0 0.1
2018-Feb-28 23:25N 09°27' W 080°01'0 0.1
2018-Feb-28 22:58N 09°27' W 080°01'0 0.1
2018-Feb-28 22:24N 09°27' W 080°01'0 0.1
2018-Feb-28 21:45N 09°27' W 080°01'0 0.1
2018-Feb-28 21:27N 09°27' W 080°01'0 0.1
2018-Feb-28 20:24N 09°27' W 080°01'0 0.2
2018-Feb-28 19:57N 09°27' W 080°01'0 0.1
2018-Feb-28 19:27N 09°27' W 080°01'0 0.0
2018-Feb-28 18:56N 09°27' W 080°01'0 0.0
2018-Feb-28 18:29N 09°27' W 080°01'0 0.0
2018-Feb-28 17:59N 09°27' W 080°01'0 0.1
2018-Feb-28 17:28N 09°27' W 080°01'0 0.1
2018-Feb-28 16:53N 09°27' W 080°01'0 0.4
2018-Feb-28 16:19N 09°27' W 080°01'0 0.0
2018-Feb-28 15:57N 09°27' W 080°01'0 0.0
2018-Feb-28 15:30N 09°27' W 080°01'0 0.0
2018-Feb-28 14:48N 09°27' W 080°01'0 0.0
2018-Feb-28 14:20N 09°27' W 080°01'0 0.0
2018-Feb-28 10:59N 09°27' W 080°01'0 0.0
2018-Feb-28 08:39N 09°27' W 080°01'0 0.0
2018-Feb-28 08:29N 09°27' W 080°01'0 0.0
2018-Feb-28 07:59N 09°27' W 080°01'0 0.0
2018-Feb-28 07:15N 09°27' W 080°01'0 0.0
2018-Feb-28 06:52N 09°27' W 080°01'0 0.0
2018-Feb-28 06:24N 09°27' W 080°01'0 0.0
2018-Feb-28 05:51N 09°27' W 080°01'0 0.0
2018-Feb-28 05:26N 09°27' W 080°01'0 0.0
2018-Feb-28 04:58N 09°27' W 080°01'0 0.0
2018-Feb-28 04:30N 09°27' W 080°01'0 0.0
2018-Feb-28 03:50N 09°27' W 080°01'0 0.0
2018-Feb-28 03:26N 09°27' W 080°01'0 0.0
2018-Feb-28 02:55N 09°27' W 080°01'0 0.0
2018-Feb-28 02:28N 09°27' W 080°01'0 0.0
2018-Feb-28 02:00N 09°27' W 080°01'0 0.0
2018-Feb-28 01:02N 09°27' W 080°01'0 0.1
2018-Feb-28 00:59N 09°27' W 080°01'0 0.0
2018-Feb-27 23:48N 09°27' W 080°01'0 0.0
2018-Feb-27 23:28N 09°27' W 080°01'0 0.0
2018-Feb-27 22:55N 09°27' W 080°01'0 0.0
2018-Feb-27 22:29N 09°27' W 080°01'0 0.0
2018-Feb-27 21:41N 09°27' W 080°01'0 0.0
2018-Feb-27 21:26N 09°27' W 080°01'0 0.0
2018-Feb-27 20:59N 09°27' W 080°01'0 0.0
2018-Feb-27 19:59N 09°27' W 080°01'0 0.1
2018-Feb-27 18:54N 09°27' W 080°01'0 0.0
2018-Feb-27 18:27N 09°27' W 080°01'0 0.0
2018-Feb-27 17:47N 09°27' W 080°01'0 0.0
2018-Feb-27 17:10N 09°27' W 080°01'0 0.0
2018-Feb-27 16:57N 09°27' W 080°01'0 0.1
2018-Feb-27 16:21N 09°27' W 080°01'0 0.0
2018-Feb-27 11:16N 09°27' W 080°01'1 0.0
2018-Feb-26 22:20N 09°27' W 080°01'0 0.5
2018-Feb-26 22:00N 09°27' W 080°01'0 0.7
2018-Feb-26 21:30N 09°27' W 080°01'1 1.2
2018-Feb-26 20:58N 09°27' W 080°00'1 1.7
2018-Feb-26 20:29N 09°28' W 079°60'1 1.5
2018-Feb-26 19:58N 09°28' W 079°59'1 1.8
2018-Feb-26 19:30N 09°29' W 079°59'1 1.8
2018-Feb-26 18:58N 09°30' W 079°58'0 1.0
2018-Feb-26 18:30N 09°30' W 079°58'1 1.1
2018-Feb-26 18:00N 09°31' W 079°57'1 1.0
2018-Feb-26 17:22N 09°31' W 079°57'1 1.7
2018-Feb-26 16:55N 09°32' W 079°56'1 1.8
2018-Feb-26 16:30N 09°32' W 079°56'1 1.9
2018-Feb-26 16:00N 09°33' W 079°55'3 0.4
2018-Feb-26 08:27N 09°35' W 079°58'1 0.1
2018-Feb-25 22:36N 09°36' W 079°56'2 1.9
2018-Feb-25 21:48N 09°34' W 079°56'2 2.8
2018-Feb-25 20:58N 09°32' W 079°55'1 3.1
2018-Feb-25 20:30N 09°30' W 079°55'2 3.1
2018-Feb-25 20:00N 09°29' W 079°55'2 3.4
2018-Feb-25 19:30N 09°27' W 079°55'2 3.6
2018-Feb-25 19:00N 09°25' W 079°55'2 3.8
2018-Feb-25 18:30N 09°24' W 079°55'2 3.5
2018-Feb-25 18:01N 09°22' W 079°56'1 1.1
2018-Feb-25 17:29N 09°21' W 079°56'0 0.1
2018-Feb-25 16:53N 09°21' W 079°56'0 0.0
2018-Feb-25 16:30N 09°21' W 079°56'0 0.0
2018-Feb-25 15:58N 09°21' W 079°56'0 0.0
2018-Feb-25 15:23N 09°21' W 079°56'0 0.0
2018-Feb-25 14:59N 09°21' W 079°56'0 0.0
2018-Feb-25 14:30N 09°21' W 079°56'0 0.0
2018-Feb-25 14:00N 09°21' W 079°56'0 0.0
2018-Feb-25 13:26N 09°21' W 079°56'0 0.0
2018-Feb-25 12:59N 09°21' W 079°56'0 0.0
2018-Feb-25 12:29N 09°21' W 079°56'0 0.0
2018-Feb-25 11:58N 09°21' W 079°56'0 0.0
2018-Feb-25 11:30N 09°21' W 079°56'0 0.0
2018-Feb-25 11:00N 09°21' W 079°56'0 0.0
2018-Feb-25 10:28N 09°21' W 079°56'0 0.0
2018-Feb-25 09:56N 09°21' W 079°56'0 0.0
2018-Feb-25 09:28N 09°21' W 079°56'0 0.0
2018-Feb-25 08:58N 09°21' W 079°56'0 0.0
2018-Feb-25 08:30N 09°21' W 079°56'0 0.0
2018-Feb-25 07:58N 09°21' W 079°56'0 0.0
2018-Feb-25 07:23N 09°21' W 079°56'0 0.0
2018-Feb-25 07:00N 09°21' W 079°56'0 0.0
2018-Feb-25 06:29N 09°21' W 079°56'0 0.0
2018-Feb-25 05:58N 09°21' W 079°56'0 0.0
2018-Feb-25 05:23N 09°21' W 079°56'0 0.0
2018-Feb-25 05:00N 09°21' W 079°56'0 0.0
2018-Feb-25 04:28N 09°21' W 079°56'0 0.0
2018-Feb-25 03:59N 09°21' W 079°56'0 0.0
2018-Feb-25 03:28N 09°21' W 079°56'0 0.0
2018-Feb-25 02:57N 09°21' W 079°56'0 0.0
2018-Feb-25 02:29N 09°21' W 079°56'0 0.0
2018-Feb-25 02:00N 09°21' W 079°56'0 0.0
2018-Feb-25 01:30N 09°21' W 079°56'1 1.6
2018-Feb-25 01:00N 09°21' W 079°55'1 1.4
2018-Feb-25 00:28N 09°21' W 079°54'0 0.0
2018-Feb-24 23:58N 09°21' W 079°54'0 0.0
2018-Feb-24 23:29N 09°21' W 079°54'0 0.0
2018-Feb-24 23:00N 09°21' W 079°54'0 0.0
2018-Feb-24 22:28N 09°21' W 079°54'0 0.0
2018-Feb-24 21:55N 09°21' W 079°54'0 0.0
2018-Feb-24 21:28N 09°21' W 079°54'0 0.0
2018-Feb-24 20:59N 09°21' W 079°54'0 0.0
2018-Feb-24 20:29N 09°21' W 079°54'0 0.0
2018-Feb-24 19:56N 09°21' W 079°54'0 0.0
2018-Feb-24 19:29N 09°21' W 079°54'0 0.0
2018-Feb-24 18:58N 09°21' W 079°54'0 0.0
2018-Feb-24 18:30N 09°21' W 079°54'0 0.0
2018-Feb-24 18:00N 09°21' W 079°54'0 0.0
2018-Feb-24 17:28N 09°21' W 079°54'0 0.0
2018-Feb-24 16:58N 09°21' W 079°54'0 0.0
2018-Feb-24 16:30N 09°21' W 079°54'0 0.0
2018-Feb-24 15:59N 09°21' W 079°54'0 0.0
2018-Feb-24 15:28N 09°21' W 079°54'0 0.0
2018-Feb-24 14:57N 09°21' W 079°54'0 0.0
2018-Feb-24 14:28N 09°21' W 079°54'0 0.0
2018-Feb-24 13:58N 09°21' W 079°54'0 0.0
2018-Feb-24 13:30N 09°21' W 079°54'0 0.0
2018-Feb-24 13:00N 09°21' W 079°54'0 0.0
2018-Feb-24 12:31N 09°21' W 079°54'0 0.0
2018-Feb-24 12:01N 09°21' W 079°54'0 0.0
2018-Feb-24 11:30N 09°21' W 079°54'0 0.0
2018-Feb-24 11:01N 09°21' W 079°54'0 0.0
2018-Feb-24 10:30N 09°21' W 079°54'0 0.0
2018-Feb-24 09:59N 09°21' W 079°54'0 0.0
2018-Feb-24 09:31N 09°21' W 079°54'0 0.0
2018-Feb-24 09:01N 09°21' W 079°54'0 0.0
2018-Feb-24 08:31N 09°21' W 079°54'0 0.0
2018-Feb-24 07:59N 09°21' W 079°54'0 0.0
2018-Feb-24 07:30N 09°21' W 079°54'0 0.0
2018-Feb-24 07:00N 09°21' W 079°54'0 0.0
2018-Feb-24 06:31N 09°21' W 079°54'0 0.0
2018-Feb-24 06:00N 09°21' W 079°54'0 0.0
2018-Feb-24 05:31N 09°21' W 079°54'0 0.0
2018-Feb-24 04:59N 09°21' W 079°54'0 0.0
2018-Feb-24 04:30N 09°21' W 079°54'0 0.0
2018-Feb-24 04:00N 09°21' W 079°54'0 0.0
2018-Feb-24 03:29N 09°21' W 079°54'0 0.0
2018-Feb-24 03:01N 09°21' W 079°54'0 0.0
2018-Feb-24 02:30N 09°21' W 079°54'0 0.0
2018-Feb-24 02:00N 09°21' W 079°54'0 0.0
2018-Feb-24 01:31N 09°21' W 079°54'1 2.0
2018-Feb-24 01:01N 09°21' W 079°55'1 1.1
2018-Feb-24 00:30N 09°21' W 079°56'0 0.0
2018-Feb-23 23:59N 09°21' W 079°56'0 0.0
2018-Feb-23 23:30N 09°21' W 079°56'0 0.0
2018-Feb-23 22:59N 09°21' W 079°56'0 0.0
2018-Feb-23 22:29N 09°21' W 079°56'0 0.0
2018-Feb-23 21:56N 09°21' W 079°56'0 0.0
2018-Feb-23 21:29N 09°21' W 079°56'0 0.0
2018-Feb-23 20:59N 09°21' W 079°56'0 0.0
2018-Feb-23 20:28N 09°21' W 079°56'0 0.0
2018-Feb-23 19:58N 09°21' W 079°56'0 0.0
2018-Feb-23 19:23N 09°21' W 079°56'0 0.0
2018-Feb-23 19:00N 09°21' W 079°56'0 0.0
2018-Feb-23 18:27N 09°21' W 079°56'0 0.0
2018-Feb-23 17:58N 09°21' W 079°56'0 0.0
2018-Feb-23 17:28N 09°21' W 079°56'0 0.0
2018-Feb-23 16:59N 09°21' W 079°56'0 0.0
2018-Feb-23 16:29N 09°21' W 079°56'0 0.0
2018-Feb-23 15:58N 09°21' W 079°56'0 0.0
2018-Feb-23 15:27N 09°21' W 079°56'0 0.0
2018-Feb-23 14:58N 09°21' W 079°56'0 0.0
2018-Feb-23 14:28N 09°21' W 079°56'0 0.0
2018-Feb-23 14:00N 09°21' W 079°56'0 0.0
2018-Feb-23 13:29N 09°21' W 079°56'0 0.0
2018-Feb-23 13:00N 09°21' W 079°56'0 0.0
2018-Feb-23 12:28N 09°21' W 079°56'0 0.0
2018-Feb-23 11:58N 09°21' W 079°56'0 0.0
2018-Feb-23 11:29N 09°21' W 079°56'0 0.0
2018-Feb-23 10:58N 09°21' W 079°56'0 0.0
2018-Feb-23 10:28N 09°21' W 079°56'0 0.0
2018-Feb-23 09:59N 09°21' W 079°56'0 0.0
2018-Feb-23 09:25N 09°21' W 079°56'0 0.0
2018-Feb-23 09:00N 09°21' W 079°56'0 0.0
2018-Feb-23 08:29N 09°21' W 079°56'0 0.0
2018-Feb-23 07:59N 09°21' W 079°56'0 0.0
2018-Feb-23 07:24N 09°21' W 079°56'0 0.0
2018-Feb-23 07:00N 09°21' W 079°56'0 0.0
2018-Feb-23 06:29N 09°21' W 079°56'0 0.0
2018-Feb-23 06:00N 09°21' W 079°56'0 0.0
2018-Feb-23 05:28N 09°21' W 079°56'0 0.0
2018-Feb-23 04:59N 09°21' W 079°56'0 0.0
2018-Feb-23 04:30N 09°21' W 079°56'0 0.0
2018-Feb-23 04:00N 09°21' W 079°56'0 0.0
2018-Feb-23 03:26N 09°21' W 079°56'0 0.0
2018-Feb-23 02:59N 09°21' W 079°56'0 0.0
2018-Feb-23 02:29N 09°21' W 079°56'0 0.0
2018-Feb-23 01:58N 09°21' W 079°56'0 0.0
2018-Feb-23 01:25N 09°21' W 079°56'0 0.0
2018-Feb-23 01:00N 09°21' W 079°56'0 0.0
2018-Feb-23 00:29N 09°21' W 079°56'0 0.0
2018-Feb-22 23:56N 09°21' W 079°56'0 0.0
2018-Feb-22 23:26N 09°21' W 079°56'0 0.0
2018-Feb-22 22:58N 09°21' W 079°56'0 0.0
2018-Feb-22 22:28N 09°21' W 079°56'0 0.0
2018-Feb-22 22:00N 09°21' W 079°56'0 0.0
2018-Feb-22 21:26N 09°21' W 079°56'0 0.0
2018-Feb-22 20:57N 09°21' W 079°56'0 0.0
2018-Feb-22 20:30N 09°21' W 079°56'0 0.0
2018-Feb-22 19:59N 09°21' W 079°56'0 0.0
2018-Feb-22 19:28N 09°21' W 079°56'0 0.0
2018-Feb-22 18:59N 09°21' W 079°56'0 0.0
2018-Feb-22 18:29N 09°21' W 079°56'0 0.0
2018-Feb-22 17:55N 09°21' W 079°56'0 0.0
2018-Feb-22 17:30N 09°21' W 079°56'0 0.0
2018-Feb-22 16:57N 09°21' W 079°56'0 0.0
2018-Feb-22 16:27N 09°21' W 079°56'0 0.0
2018-Feb-22 15:57N 09°21' W 079°56'0 0.0
2018-Feb-22 15:29N 09°21' W 079°56'0 0.0
2018-Feb-22 14:55N 09°21' W 079°56'0 0.0
2018-Feb-22 14:30N 09°21' W 079°56'0 0.0
2018-Feb-22 13:58N 09°21' W 079°56'0 0.0
2018-Feb-22 13:30N 09°21' W 079°56'0 0.0
2018-Feb-22 13:00N 09°21' W 079°56'0 0.0
2018-Feb-22 12:28N 09°21' W 079°56'0 0.0
2018-Feb-22 11:58N 09°21' W 079°56'0 0.0
2018-Feb-22 11:30N 09°21' W 079°56'0 0.0
2018-Feb-22 10:58N 09°21' W 079°56'0 0.0
2018-Feb-22 10:28N 09°21' W 079°56'0 0.0
2018-Feb-22 09:58N 09°21' W 079°56'0 0.0
2018-Feb-22 09:25N 09°21' W 079°56'0 0.0
2018-Feb-22 09:00N 09°21' W 079°56'0 0.0
2018-Feb-22 08:27N 09°21' W 079°56'0 0.0
2018-Feb-22 07:58N 09°21' W 079°56'0 0.0
2018-Feb-22 07:28N 09°21' W 079°56'0 0.0
2018-Feb-22 06:59N 09°21' W 079°56'0 0.0
2018-Feb-22 06:28N 09°21' W 079°56'0 0.0
2018-Feb-22 05:58N 09°21' W 079°56'0 0.0
2018-Feb-22 05:29N 09°21' W 079°56'0 0.0
2018-Feb-22 05:00N 09°21' W 079°56'0 0.0
2018-Feb-22 04:30N 09°21' W 079°56'0 0.0
2018-Feb-22 03:57N 09°21' W 079°56'0 0.0
2018-Feb-22 03:29N 09°21' W 079°56'0 0.0
2018-Feb-22 03:00N 09°21' W 079°56'0 0.0
2018-Feb-22 02:30N 09°21' W 079°56'0 0.0
2018-Feb-22 01:58N 09°21' W 079°56'0 0.0
2018-Feb-22 01:26N 09°21' W 079°56'0 0.0
2018-Feb-22 00:59N 09°21' W 079°56'0 0.0
2018-Feb-22 00:28N 09°21' W 079°56'0 0.0
2018-Feb-21 23:58N 09°21' W 079°56'0 0.0
2018-Feb-21 23:28N 09°21' W 079°56'0 0.0
2018-Feb-21 22:56N 09°21' W 079°56'0 0.0
2018-Feb-21 22:30N 09°21' W 079°56'0 0.0
2018-Feb-21 22:00N 09°21' W 079°56'0 0.0
2018-Feb-21 21:30N 09°21' W 079°56'0 0.1
2018-Feb-21 21:00N 09°21' W 079°56'0 0.0
2018-Feb-21 20:30N 09°21' W 079°56'2 3.5
2018-Feb-21 20:00N 09°20' W 079°55'3 5.9
2018-Feb-21 19:30N 09°17' W 079°55'0 0.5
2018-Feb-21 18:58N 09°16' W 079°55'  
Track history (hours):
 
Tides and Currents Weather Stations Pressure Air Temp Water Temp Dewpoint Dewpoint Depression Visibility Wind Speed Wind Dir Waves Ship Positions

MiSS Tiger

Last reported at 2018-Mar-01 03:23 UTC. Time now 2018-Jun-22 13:19 UTC.
Position N 09°33' W 079°59'.
Warning: this ship's position is months out of date.

Length 44 m; draft 5.6 m.

Type: Towing. MMSI: 352229000.

Date/timePositionNaut miles runAvg speedWind from/ knotsBaromVisibWave heightAir tempDewpointWater temp
2018-Mar-01 03:23N 09°33' W 079°59'4 3.8
2018-Mar-01 02:26N 09°29' W 079°60'1 2.1
2018-Mar-01 01:58N 09°28' W 079°60'1 1.4
2018-Mar-01 01:20N 09°28' W 080°01'0 0.8
2018-Mar-01 00:42N 09°27' W 080°01'0 0.2
2018-Feb-28 23:41N 09°27' W 080°01'0 0.1
2018-Feb-28 23:25N 09°27' W 080°01'0 0.1
2018-Feb-28 22:58N 09°27' W 080°01'0 0.1
2018-Feb-28 22:24N 09°27' W 080°01'0 0.1
2018-Feb-28 21:45N 09°27' W 080°01'0 0.1
2018-Feb-28 21:27N 09°27' W 080°01'0 0.1
2018-Feb-28 20:24N 09°27' W 080°01'0 0.2
2018-Feb-28 19:57N 09°27' W 080°01'0 0.1
2018-Feb-28 19:27N 09°27' W 080°01'0 0.0
2018-Feb-28 18:56N 09°27' W 080°01'0 0.0
2018-Feb-28 18:29N 09°27' W 080°01'0 0.0
2018-Feb-28 17:59N 09°27' W 080°01'0 0.1
2018-Feb-28 17:28N 09°27' W 080°01'0 0.1
2018-Feb-28 16:53N 09°27' W 080°01'0 0.4
2018-Feb-28 16:19N 09°27' W 080°01'0 0.0
2018-Feb-28 15:57N 09°27' W 080°01'0 0.0
2018-Feb-28 15:30N 09°27' W 080°01'0 0.0
2018-Feb-28 14:48N 09°27' W 080°01'0 0.0
2018-Feb-28 14:20N 09°27' W 080°01'0 0.0
2018-Feb-28 10:59N 09°27' W 080°01'0 0.0
2018-Feb-28 08:39N 09°27' W 080°01'0 0.0
2018-Feb-28 08:29N 09°27' W 080°01'0 0.0
2018-Feb-28 07:59N 09°27' W 080°01'0 0.0
2018-Feb-28 07:15N 09°27' W 080°01'0 0.0
2018-Feb-28 06:52N 09°27' W 080°01'0 0.0
2018-Feb-28 06:24N 09°27' W 080°01'0 0.0
2018-Feb-28 05:51N 09°27' W 080°01'0 0.0
2018-Feb-28 05:26N 09°27' W 080°01'0 0.0
2018-Feb-28 04:58N 09°27' W 080°01'0 0.0
2018-Feb-28 04:30N 09°27' W 080°01'0 0.0
2018-Feb-28 03:50N 09°27' W 080°01'0 0.0
2018-Feb-28 03:26N 09°27' W 080°01'0 0.0
2018-Feb-28 02:55N 09°27' W 080°01'0 0.0
2018-Feb-28 02:28N 09°27' W 080°01'0 0.0
2018-Feb-28 02:00N 09°27' W 080°01'0 0.0
2018-Feb-28 01:02N 09°27' W 080°01'0 0.1
2018-Feb-28 00:59N 09°27' W 080°01'0 0.0
2018-Feb-27 23:48N 09°27' W 080°01'0 0.0
2018-Feb-27 23:28N 09°27' W 080°01'0 0.0
2018-Feb-27 22:55N 09°27' W 080°01'0 0.0
2018-Feb-27 22:29N 09°27' W 080°01'0 0.0
2018-Feb-27 21:41N 09°27' W 080°01'0 0.0
2018-Feb-27 21:26N 09°27' W 080°01'0 0.0
2018-Feb-27 20:59N 09°27' W 080°01'0 0.0
2018-Feb-27 19:59N 09°27' W 080°01'0 0.1
2018-Feb-27 18:54N 09°27' W 080°01'0 0.0
2018-Feb-27 18:27N 09°27' W 080°01'0 0.0
2018-Feb-27 17:47N 09°27' W 080°01'0 0.0
2018-Feb-27 17:10N 09°27' W 080°01'0 0.0
2018-Feb-27 16:57N 09°27' W 080°01'0 0.1
2018-Feb-27 16:21N 09°27' W 080°01'0 0.0
2018-Feb-27 11:16N 09°27' W 080°01'1 0.0
2018-Feb-26 22:20N 09°27' W 080°01'0 0.5
2018-Feb-26 22:00N 09°27' W 080°01'0 0.7
2018-Feb-26 21:30N 09°27' W 080°01'1 1.2
2018-Feb-26 20:58N 09°27' W 080°00'1 1.7
2018-Feb-26 20:29N 09°28' W 079°60'1 1.5
2018-Feb-26 19:58N 09°28' W 079°59'1 1.8
2018-Feb-26 19:30N 09°29' W 079°59'1 1.8
2018-Feb-26 18:58N 09°30' W 079°58'0 1.0
2018-Feb-26 18:30N 09°30' W 079°58'1 1.1
2018-Feb-26 18:00N 09°31' W 079°57'1 1.0
2018-Feb-26 17:22N 09°31' W 079°57'1 1.7
2018-Feb-26 16:55N 09°32' W 079°56'1 1.8
2018-Feb-26 16:30N 09°32' W 079°56'1 1.9
2018-Feb-26 16:00N 09°33' W 079°55'3 0.4
2018-Feb-26 08:27N 09°35' W 079°58'1 0.1
2018-Feb-25 22:36N 09°36' W 079°56'2 1.9
2018-Feb-25 21:48N 09°34' W 079°56'2 2.8
2018-Feb-25 20:58N 09°32' W 079°55'1 3.1
2018-Feb-25 20:30N 09°30' W 079°55'2 3.1
2018-Feb-25 20:00N 09°29' W 079°55'2 3.4
2018-Feb-25 19:30N 09°27' W 079°55'2 3.6
2018-Feb-25 19:00N 09°25' W 079°55'2 3.8
2018-Feb-25 18:30N 09°24' W 079°55'2 3.5
2018-Feb-25 18:01N 09°22' W 079°56'1 1.1
2018-Feb-25 17:29N 09°21' W 079°56'0 0.1
2018-Feb-25 16:53N 09°21' W 079°56'0 0.0
2018-Feb-25 16:30N 09°21' W 079°56'0 0.0
2018-Feb-25 15:58N 09°21' W 079°56'0 0.0
2018-Feb-25 15:23N 09°21' W 079°56'0 0.0
2018-Feb-25 14:59N 09°21' W 079°56'0 0.0
2018-Feb-25 14:30N 09°21' W 079°56'0 0.0
2018-Feb-25 14:00N 09°21' W 079°56'0 0.0
2018-Feb-25 13:26N 09°21' W 079°56'0 0.0
2018-Feb-25 12:59N 09°21' W 079°56'0 0.0
2018-Feb-25 12:29N 09°21' W 079°56'0 0.0
2018-Feb-25 11:58N 09°21' W 079°56'0 0.0
2018-Feb-25 11:30N 09°21' W 079°56'0 0.0
2018-Feb-25 11:00N 09°21' W 079°56'0 0.0
2018-Feb-25 10:28N 09°21' W 079°56'0 0.0
2018-Feb-25 09:56N 09°21' W 079°56'0 0.0
2018-Feb-25 09:28N 09°21' W 079°56'0 0.0
2018-Feb-25 08:58N 09°21' W 079°56'0 0.0
2018-Feb-25 08:30N 09°21' W 079°56'0 0.0
2018-Feb-25 07:58N 09°21' W 079°56'0 0.0
2018-Feb-25 07:23N 09°21' W 079°56'0 0.0
2018-Feb-25 07:00N 09°21' W 079°56'0 0.0
2018-Feb-25 06:29N 09°21' W 079°56'0 0.0
2018-Feb-25 05:58N 09°21' W 079°56'0 0.0
2018-Feb-25 05:23N 09°21' W 079°56'0 0.0
2018-Feb-25 05:00N 09°21' W 079°56'0 0.0
2018-Feb-25 04:28N 09°21' W 079°56'0 0.0
2018-Feb-25 03:59N 09°21' W 079°56'0 0.0
2018-Feb-25 03:28N 09°21' W 079°56'0 0.0
2018-Feb-25 02:57N 09°21' W 079°56'0 0.0
2018-Feb-25 02:29N 09°21' W 079°56'0 0.0
2018-Feb-25 02:00N 09°21' W 079°56'0 0.0
2018-Feb-25 01:30N 09°21' W 079°56'1 1.6
2018-Feb-25 01:00N 09°21' W 079°55'1 1.4
2018-Feb-25 00:28N 09°21' W 079°54'0 0.0
2018-Feb-24 23:58N 09°21' W 079°54'0 0.0
2018-Feb-24 23:29N 09°21' W 079°54'0 0.0
2018-Feb-24 23:00N 09°21' W 079°54'0 0.0
2018-Feb-24 22:28N 09°21' W 079°54'0 0.0
2018-Feb-24 21:55N 09°21' W 079°54'0 0.0
2018-Feb-24 21:28N 09°21' W 079°54'0 0.0
2018-Feb-24 20:59N 09°21' W 079°54'0 0.0
2018-Feb-24 20:29N 09°21' W 079°54'0 0.0
2018-Feb-24 19:56N 09°21' W 079°54'0 0.0
2018-Feb-24 19:29N 09°21' W 079°54'0 0.0
2018-Feb-24 18:58N 09°21' W 079°54'0 0.0
2018-Feb-24 18:30N 09°21' W 079°54'0 0.0
2018-Feb-24 18:00N 09°21' W 079°54'0 0.0
2018-Feb-24 17:28N 09°21' W 079°54'0 0.0
2018-Feb-24 16:58N 09°21' W 079°54'0 0.0
2018-Feb-24 16:30N 09°21' W 079°54'0 0.0
2018-Feb-24 15:59N 09°21' W 079°54'0 0.0
2018-Feb-24 15:28N 09°21' W 079°54'0 0.0
2018-Feb-24 14:57N 09°21' W 079°54'0 0.0
2018-Feb-24 14:28N 09°21' W 079°54'0 0.0
2018-Feb-24 13:58N 09°21' W 079°54'0 0.0
2018-Feb-24 13:30N 09°21' W 079°54'0 0.0
2018-Feb-24 13:00N 09°21' W 079°54'0 0.0
2018-Feb-24 12:31N 09°21' W 079°54'0 0.0
2018-Feb-24 12:01N 09°21' W 079°54'0 0.0
2018-Feb-24 11:30N 09°21' W 079°54'0 0.0
2018-Feb-24 11:01N 09°21' W 079°54'0 0.0
2018-Feb-24 10:30N 09°21' W 079°54'0 0.0
2018-Feb-24 09:59N 09°21' W 079°54'0 0.0
2018-Feb-24 09:31N 09°21' W 079°54'0 0.0
2018-Feb-24 09:01N 09°21' W 079°54'0 0.0
2018-Feb-24 08:31N 09°21' W 079°54'0 0.0
2018-Feb-24 07:59N 09°21' W 079°54'0 0.0
2018-Feb-24 07:30N 09°21' W 079°54'0 0.0
2018-Feb-24 07:00N 09°21' W 079°54'0 0.0
2018-Feb-24 06:31N 09°21' W 079°54'0 0.0
2018-Feb-24 06:00N 09°21' W 079°54'0 0.0
2018-Feb-24 05:31N 09°21' W 079°54'0 0.0
2018-Feb-24 04:59N 09°21' W 079°54'0 0.0
2018-Feb-24 04:30N 09°21' W 079°54'0 0.0
2018-Feb-24 04:00N 09°21' W 079°54'0 0.0
2018-Feb-24 03:29N 09°21' W 079°54'0 0.0
2018-Feb-24 03:01N 09°21' W 079°54'0 0.0
2018-Feb-24 02:30N 09°21' W 079°54'0 0.0
2018-Feb-24 02:00N 09°21' W 079°54'0 0.0
2018-Feb-24 01:31N 09°21' W 079°54'1 2.0
2018-Feb-24 01:01N 09°21' W 079°55'1 1.1
2018-Feb-24 00:30N 09°21' W 079°56'0 0.0
2018-Feb-23 23:59N 09°21' W 079°56'0 0.0
2018-Feb-23 23:30N 09°21' W 079°56'0 0.0
2018-Feb-23 22:59N 09°21' W 079°56'0 0.0
2018-Feb-23 22:29N 09°21' W 079°56'0 0.0
2018-Feb-23 21:56N 09°21' W 079°56'0 0.0
2018-Feb-23 21:29N 09°21' W 079°56'0 0.0
2018-Feb-23 20:59N 09°21' W 079°56'0 0.0
2018-Feb-23 20:28N 09°21' W 079°56'0 0.0
2018-Feb-23 19:58N 09°21' W 079°56'0 0.0
2018-Feb-23 19:23N 09°21' W 079°56'0 0.0
2018-Feb-23 19:00N 09°21' W 079°56'0 0.0
2018-Feb-23 18:27N 09°21' W 079°56'0 0.0
2018-Feb-23 17:58N 09°21' W 079°56'0 0.0
2018-Feb-23 17:28N 09°21' W 079°56'0 0.0
2018-Feb-23 16:59N 09°21' W 079°56'0 0.0
2018-Feb-23 16:29N 09°21' W 079°56'0 0.0
2018-Feb-23 15:58N 09°21' W 079°56'0 0.0
2018-Feb-23 15:27N 09°21' W 079°56'0 0.0
2018-Feb-23 14:58N 09°21' W 079°56'0 0.0
2018-Feb-23 14:28N 09°21' W 079°56'0 0.0
2018-Feb-23 14:00N 09°21' W 079°56'0 0.0
2018-Feb-23 13:29N 09°21' W 079°56'0 0.0
2018-Feb-23 13:00N 09°21' W 079°56'0 0.0
2018-Feb-23 12:28N 09°21' W 079°56'0 0.0
2018-Feb-23 11:58N 09°21' W 079°56'0 0.0
2018-Feb-23 11:29N 09°21' W 079°56'0 0.0
2018-Feb-23 10:58N 09°21' W 079°56'0 0.0
2018-Feb-23 10:28N 09°21' W 079°56'0 0.0
2018-Feb-23 09:59N 09°21' W 079°56'0 0.0
2018-Feb-23 09:25N 09°21' W 079°56'0 0.0
2018-Feb-23 09:00N 09°21' W 079°56'0 0.0
2018-Feb-23 08:29N 09°21' W 079°56'0 0.0
2018-Feb-23 07:59N 09°21' W 079°56'0 0.0
2018-Feb-23 07:24N 09°21' W 079°56'0 0.0
2018-Feb-23 07:00N 09°21' W 079°56'0 0.0
2018-Feb-23 06:29N 09°21' W 079°56'0 0.0
2018-Feb-23 06:00N 09°21' W 079°56'0 0.0
2018-Feb-23 05:28N 09°21' W 079°56'0 0.0
2018-Feb-23 04:59N 09°21' W 079°56'0 0.0
2018-Feb-23 04:30N 09°21' W 079°56'0 0.0
2018-Feb-23 04:00N 09°21' W 079°56'0 0.0
2018-Feb-23 03:26N 09°21' W 079°56'0 0.0
2018-Feb-23 02:59N 09°21' W 079°56'0 0.0
2018-Feb-23 02:29N 09°21' W 079°56'0 0.0
2018-Feb-23 01:58N 09°21' W 079°56'0 0.0
2018-Feb-23 01:25N 09°21' W 079°56'0 0.0
2018-Feb-23 01:00N 09°21' W 079°56'0 0.0
2018-Feb-23 00:29N 09°21' W 079°56'0 0.0
2018-Feb-22 23:56N 09°21' W 079°56'0 0.0
2018-Feb-22 23:26N 09°21' W 079°56'0 0.0
2018-Feb-22 22:58N 09°21' W 079°56'0 0.0
2018-Feb-22 22:28N 09°21' W 079°56'0 0.0
2018-Feb-22 22:00N 09°21' W 079°56'0 0.0
2018-Feb-22 21:26N 09°21' W 079°56'0 0.0
2018-Feb-22 20:57N 09°21' W 079°56'0 0.0
2018-Feb-22 20:30N 09°21' W 079°56'0 0.0
2018-Feb-22 19:59N 09°21' W 079°56'0 0.0
2018-Feb-22 19:28N 09°21' W 079°56'0 0.0
2018-Feb-22 18:59N 09°21' W 079°56'0 0.0
2018-Feb-22 18:29N 09°21' W 079°56'0 0.0
2018-Feb-22 17:55N 09°21' W 079°56'0 0.0
2018-Feb-22 17:30N 09°21' W 079°56'0 0.0
2018-Feb-22 16:57N 09°21' W 079°56'0 0.0
2018-Feb-22 16:27N 09°21' W 079°56'0 0.0
2018-Feb-22 15:57N 09°21' W 079°56'0 0.0
2018-Feb-22 15:29N 09°21' W 079°56'0 0.0
2018-Feb-22 14:55N 09°21' W 079°56'0 0.0
2018-Feb-22 14:30N 09°21' W 079°56'0 0.0
2018-Feb-22 13:58N 09°21' W 079°56'0 0.0
2018-Feb-22 13:30N 09°21' W 079°56'0 0.0
2018-Feb-22 13:00N 09°21' W 079°56'0 0.0
2018-Feb-22 12:28N 09°21' W 079°56'0 0.0
2018-Feb-22 11:58N 09°21' W 079°56'0 0.0
2018-Feb-22 11:30N 09°21' W 079°56'0 0.0
2018-Feb-22 10:58N 09°21' W 079°56'0 0.0
2018-Feb-22 10:28N 09°21' W 079°56'0 0.0
2018-Feb-22 09:58N 09°21' W 079°56'0 0.0
2018-Feb-22 09:25N 09°21' W 079°56'0 0.0
2018-Feb-22 09:00N 09°21' W 079°56'0 0.0
2018-Feb-22 08:27N 09°21' W 079°56'0 0.0
2018-Feb-22 07:58N 09°21' W 079°56'0 0.0
2018-Feb-22 07:28N 09°21' W 079°56'0 0.0
2018-Feb-22 06:59N 09°21' W 079°56'0 0.0
2018-Feb-22 06:28N 09°21' W 079°56'0 0.0
2018-Feb-22 05:58N 09°21' W 079°56'0 0.0
2018-Feb-22 05:29N 09°21' W 079°56'0 0.0
2018-Feb-22 05:00N 09°21' W 079°56'0 0.0
2018-Feb-22 04:30N 09°21' W 079°56'0 0.0
2018-Feb-22 03:57N 09°21' W 079°56'0 0.0
2018-Feb-22 03:29N 09°21' W 079°56'0 0.0
2018-Feb-22 03:00N 09°21' W 079°56'0 0.0
2018-Feb-22 02:30N 09°21' W 079°56'0 0.0
2018-Feb-22 01:58N 09°21' W 079°56'0 0.0
2018-Feb-22 01:26N 09°21' W 079°56'0 0.0
2018-Feb-22 00:59N 09°21' W 079°56'0 0.0
2018-Feb-22 00:28N 09°21' W 079°56'0 0.0
2018-Feb-21 23:58N 09°21' W 079°56'0 0.0
2018-Feb-21 23:28N 09°21' W 079°56'0 0.0
2018-Feb-21 22:56N 09°21' W 079°56'0 0.0
2018-Feb-21 22:30N 09°21' W 079°56'0 0.0
2018-Feb-21 22:00N 09°21' W 079°56'0 0.0
2018-Feb-21 21:30N 09°21' W 079°56'0 0.1
2018-Feb-21 21:00N 09°21' W 079°56'0 0.0
2018-Feb-21 20:30N 09°21' W 079°56'2 3.5
2018-Feb-21 20:00N 09°20' W 079°55'3 5.9
2018-Feb-21 19:30N 09°17' W 079°55'0 0.5
2018-Feb-21 18:58N 09°16' W 079°55'  

Dump ship's entire track history